sensor_id;sensor_type;location;lat;lon;timestamp;P1;durP1;ratioP1;P2;durP2;ratioP2
359;SDS011;168;48.872;9.226;2024-01-30T00:00:01;14.50;;;12.40;;
359;SDS011;168;48.872;9.226;2024-01-30T00:02:30;21.30;;;13.90;;
359;SDS011;168;48.872;9.226;2024-01-30T00:04:58;14.70;;;12.87;;
359;SDS011;168;48.872;9.226;2024-01-30T00:07:25;16.90;;;13.30;;
359;SDS011;168;48.872;9.226;2024-01-30T00:09:53;16.00;;;14.30;;
359;SDS011;168;48.872;9.226;2024-01-30T00:12:22;18.33;;;13.83;;
359;SDS011;168;48.872;9.226;2024-01-30T00:14:49;15.43;;;13.73;;
359;SDS011;168;48.872;9.226;2024-01-30T00:17:19;16.03;;;13.90;;
359;SDS011;168;48.872;9.226;2024-01-30T00:19:47;16.50;;;14.50;;
359;SDS011;168;48.872;9.226;2024-01-30T00:22:14;16.87;;;13.63;;
359;SDS011;168;48.872;9.226;2024-01-30T00:24:42;18.70;;;14.57;;
359;SDS011;168;48.872;9.226;2024-01-30T00:27:09;18.10;;;14.23;;
359;SDS011;168;48.872;9.226;2024-01-30T00:29:38;15.93;;;13.50;;
359;SDS011;168;48.872;9.226;2024-01-30T00:32:06;13.87;;;12.40;;
359;SDS011;168;48.872;9.226;2024-01-30T00:34:34;15.07;;;12.27;;
359;SDS011;168;48.872;9.226;2024-01-30T00:37:01;14.57;;;12.97;;
359;SDS011;168;48.872;9.226;2024-01-30T00:39:31;13.53;;;12.13;;
359;SDS011;168;48.872;9.226;2024-01-30T00:41:59;15.60;;;12.60;;
359;SDS011;168;48.872;9.226;2024-01-30T00:44:26;12.90;;;10.93;;
359;SDS011;168;48.872;9.226;2024-01-30T00:46:55;14.77;;;11.67;;
359;SDS011;168;48.872;9.226;2024-01-30T00:49:22;13.33;;;11.43;;
359;SDS011;168;48.872;9.226;2024-01-30T00:51:50;15.70;;;12.13;;
359;SDS011;168;48.872;9.226;2024-01-30T00:54:17;14.70;;;11.90;;
359;SDS011;168;48.872;9.226;2024-01-30T00:56:44;13.00;;;10.47;;
359;SDS011;168;48.872;9.226;2024-01-30T00:59:12;13.20;;;11.83;;
359;SDS011;168;48.872;9.226;2024-01-30T01:01:39;15.47;;;12.27;;
359;SDS011;168;48.872;9.226;2024-01-30T01:04:08;13.33;;;11.93;;
359;SDS011;168;48.872;9.226;2024-01-30T01:06:36;13.07;;;11.47;;
359;SDS011;168;48.872;9.226;2024-01-30T01:09:03;14.10;;;11.53;;
359;SDS011;168;48.872;9.226;2024-01-30T01:11:31;14.20;;;11.40;;
359;SDS011;168;48.872;9.226;2024-01-30T01:13:58;12.83;;;11.53;;
359;SDS011;168;48.872;9.226;2024-01-30T01:16:25;14.03;;;11.47;;
359;SDS011;168;48.872;9.226;2024-01-30T01:18:53;13.57;;;10.90;;
359;SDS011;168;48.872;9.226;2024-01-30T01:21:22;12.63;;;10.30;;
359;SDS011;168;48.872;9.226;2024-01-30T01:23:49;11.50;;;10.20;;
359;SDS011;168;48.872;9.226;2024-01-30T01:26:17;11.80;;;10.67;;
359;SDS011;168;48.872;9.226;2024-01-30T01:28:44;13.07;;;10.87;;
359;SDS011;168;48.872;9.226;2024-01-30T01:31:12;15.30;;;11.70;;
359;SDS011;168;48.872;9.226;2024-01-30T01:33:39;14.47;;;12.17;;
359;SDS011;168;48.872;9.226;2024-01-30T01:36:06;14.10;;;11.30;;
359;SDS011;168;48.872;9.226;2024-01-30T01:38:35;11.27;;;9.73;;
359;SDS011;168;48.872;9.226;2024-01-30T01:41:03;11.60;;;10.33;;
359;SDS011;168;48.872;9.226;2024-01-30T01:43:32;12.53;;;11.23;;
359;SDS011;168;48.872;9.226;2024-01-30T01:46:00;15.67;;;12.60;;
359;SDS011;168;48.872;9.226;2024-01-30T01:48:27;12.17;;;10.90;;
359;SDS011;168;48.872;9.226;2024-01-30T01:50:56;13.10;;;10.80;;
359;SDS011;168;48.872;9.226;2024-01-30T01:53:24;12.33;;;10.70;;
359;SDS011;168;48.872;9.226;2024-01-30T01:55:53;12.67;;;10.47;;
359;SDS011;168;48.872;9.226;2024-01-30T01:58:22;12.07;;;10.73;;
359;SDS011;168;48.872;9.226;2024-01-30T02:00:53;13.83;;;12.47;;
359;SDS011;168;48.872;9.226;2024-01-30T02:03:20;11.80;;;10.60;;
359;SDS011;168;48.872;9.226;2024-01-30T02:05:48;15.27;;;11.83;;
359;SDS011;168;48.872;9.226;2024-01-30T02:08:16;12.60;;;11.20;;
359;SDS011;168;48.872;9.226;2024-01-30T02:10:43;12.50;;;10.97;;
359;SDS011;168;48.872;9.226;2024-01-30T02:13:12;15.40;;;11.67;;
359;SDS011;168;48.872;9.226;2024-01-30T02:15:40;13.97;;;12.07;;
359;SDS011;168;48.872;9.226;2024-01-30T02:18:07;11.70;;;10.50;;
359;SDS011;168;48.872;9.226;2024-01-30T02:20:35;12.50;;;10.87;;
359;SDS011;168;48.872;9.226;2024-01-30T02:23:05;12.40;;;11.20;;
359;SDS011;168;48.872;9.226;2024-01-30T02:25:36;13.50;;;11.87;;
359;SDS011;168;48.872;9.226;2024-01-30T02:28:09;14.17;;;10.37;;
359;SDS011;168;48.872;9.226;2024-01-30T02:30:37;11.77;;;10.57;;
359;SDS011;168;48.872;9.226;2024-01-30T02:33:05;12.70;;;10.83;;
359;SDS011;168;48.872;9.226;2024-01-30T02:35:32;12.67;;;11.37;;
359;SDS011;168;48.872;9.226;2024-01-30T02:38:00;11.63;;;10.43;;
359;SDS011;168;48.872;9.226;2024-01-30T02:40:29;11.80;;;10.50;;
359;SDS011;168;48.872;9.226;2024-01-30T02:42:57;12.40;;;10.60;;
359;SDS011;168;48.872;9.226;2024-01-30T02:45:25;13.60;;;12.17;;
359;SDS011;168;48.872;9.226;2024-01-30T02:47:52;18.73;;;14.90;;
359;SDS011;168;48.872;9.226;2024-01-30T02:50:20;14.70;;;13.20;;
359;SDS011;168;48.872;9.226;2024-01-30T02:52:47;17.33;;;14.77;;
359;SDS011;168;48.872;9.226;2024-01-30T02:55:15;15.50;;;13.33;;
359;SDS011;168;48.872;9.226;2024-01-30T02:57:44;18.50;;;13.90;;
359;SDS011;168;48.872;9.226;2024-01-30T03:00:12;17.57;;;14.90;;
359;SDS011;168;48.872;9.226;2024-01-30T03:02:40;17.17;;;13.70;;
359;SDS011;168;48.872;9.226;2024-01-30T03:05:07;15.73;;;13.90;;
359;SDS011;168;48.872;9.226;2024-01-30T03:07:35;17.63;;;14.83;;
359;SDS011;168;48.872;9.226;2024-01-30T03:10:04;17.60;;;14.47;;
359;SDS011;168;48.872;9.226;2024-01-30T03:12:32;19.93;;;15.10;;
359;SDS011;168;48.872;9.226;2024-01-30T03:15:00;22.50;;;15.00;;
359;SDS011;168;48.872;9.226;2024-01-30T03:17:28;17.50;;;13.70;;
359;SDS011;168;48.872;9.226;2024-01-30T03:19:55;15.87;;;14.20;;
359;SDS011;168;48.872;9.226;2024-01-30T03:22:23;17.93;;;14.53;;
359;SDS011;168;48.872;9.226;2024-01-30T03:24:50;16.50;;;13.43;;
359;SDS011;168;48.872;9.226;2024-01-30T03:27:17;16.23;;;14.40;;
359;SDS011;168;48.872;9.226;2024-01-30T03:29:45;15.33;;;13.30;;
359;SDS011;168;48.872;9.226;2024-01-30T03:32:13;17.03;;;13.77;;
359;SDS011;168;48.872;9.226;2024-01-30T03:34:41;15.03;;;13.33;;
359;SDS011;168;48.872;9.226;2024-01-30T03:37:08;16.17;;;13.83;;
359;SDS011;168;48.872;9.226;2024-01-30T03:39:35;15.97;;;14.03;;
359;SDS011;168;48.872;9.226;2024-01-30T03:42:03;15.30;;;13.70;;
359;SDS011;168;48.872;9.226;2024-01-30T03:44:30;18.13;;;14.47;;
359;SDS011;168;48.872;9.226;2024-01-30T03:46:58;18.23;;;14.07;;
359;SDS011;168;48.872;9.226;2024-01-30T03:49:26;16.03;;;13.87;;
359;SDS011;168;48.872;9.226;2024-01-30T03:51:54;15.23;;;13.63;;
359;SDS011;168;48.872;9.226;2024-01-30T03:54:21;16.03;;;14.40;;
359;SDS011;168;48.872;9.226;2024-01-30T03:56:49;18.50;;;14.27;;
359;SDS011;168;48.872;9.226;2024-01-30T03:59:16;17.73;;;13.73;;
359;SDS011;168;48.872;9.226;2024-01-30T04:01:47;19.40;;;14.73;;
359;SDS011;168;48.872;9.226;2024-01-30T04:04:15;16.93;;;14.57;;
359;SDS011;168;48.872;9.226;2024-01-30T04:06:43;15.73;;;13.67;;
359;SDS011;168;48.872;9.226;2024-01-30T04:09:11;15.93;;;14.23;;
359;SDS011;168;48.872;9.226;2024-01-30T04:11:40;16.87;;;13.50;;
359;SDS011;168;48.872;9.226;2024-01-30T04:14:08;17.40;;;14.70;;
359;SDS011;168;48.872;9.226;2024-01-30T04:16:35;15.10;;;13.60;;
359;SDS011;168;48.872;9.226;2024-01-30T04:19:03;15.87;;;13.73;;
359;SDS011;168;48.872;9.226;2024-01-30T04:21:30;15.97;;;14.27;;
359;SDS011;168;48.872;9.226;2024-01-30T04:23:59;18.67;;;15.73;;
359;SDS011;168;48.872;9.226;2024-01-30T04:26:26;16.40;;;14.67;;
359;SDS011;168;48.872;9.226;2024-01-30T04:28:54;18.17;;;15.13;;
359;SDS011;168;48.872;9.226;2024-01-30T04:31:21;38.10;;;25.07;;
359;SDS011;168;48.872;9.226;2024-01-30T04:33:48;152.73;;;84.27;;
359;SDS011;168;48.872;9.226;2024-01-30T04:36:16;113.23;;;62.30;;
359;SDS011;168;48.872;9.226;2024-01-30T04:38:43;168.17;;;85.70;;
359;SDS011;168;48.872;9.226;2024-01-30T04:41:12;136.83;;;68.10;;
359;SDS011;168;48.872;9.226;2024-01-30T04:43:39;98.20;;;51.77;;
359;SDS011;168;48.872;9.226;2024-01-30T04:46:07;67.53;;;37.23;;
359;SDS011;168;48.872;9.226;2024-01-30T04:48:34;65.77;;;38.10;;
359;SDS011;168;48.872;9.226;2024-01-30T04:51:01;33.80;;;22.60;;
359;SDS011;168;48.872;9.226;2024-01-30T04:53:30;15.97;;;13.97;;
359;SDS011;168;48.872;9.226;2024-01-30T04:55:57;12.87;;;10.63;;
359;SDS011;168;48.872;9.226;2024-01-30T04:58:26;12.40;;;10.60;;
359;SDS011;168;48.872;9.226;2024-01-30T05:00:53;11.40;;;9.30;;
359;SDS011;168;48.872;9.226;2024-01-30T05:03:21;11.93;;;10.63;;
359;SDS011;168;48.872;9.226;2024-01-30T05:05:49;11.40;;;10.20;;
359;SDS011;168;48.872;9.226;2024-01-30T05:08:17;11.30;;;10.10;;
359;SDS011;168;48.872;9.226;2024-01-30T05:10:44;11.27;;;10.17;;
359;SDS011;168;48.872;9.226;2024-01-30T05:13:11;10.87;;;9.57;;
359;SDS011;168;48.872;9.226;2024-01-30T05:15:41;12.40;;;10.80;;
359;SDS011;168;48.872;9.226;2024-01-30T05:18:08;12.27;;;10.97;;
359;SDS011;168;48.872;9.226;2024-01-30T05:20:35;12.40;;;11.00;;
359;SDS011;168;48.872;9.226;2024-01-30T05:23:03;14.70;;;11.40;;
359;SDS011;168;48.872;9.226;2024-01-30T05:25:30;14.23;;;11.80;;
359;SDS011;168;48.872;9.226;2024-01-30T05:28:00;15.87;;;11.90;;
359;SDS011;168;48.872;9.226;2024-01-30T05:30:27;15.13;;;12.30;;
359;SDS011;168;48.872;9.226;2024-01-30T05:32:56;16.27;;;13.60;;
359;SDS011;168;48.872;9.226;2024-01-30T05:35:23;15.67;;;13.10;;
359;SDS011;168;48.872;9.226;2024-01-30T05:37:51;14.67;;;13.10;;
359;SDS011;168;48.872;9.226;2024-01-30T05:40:19;13.27;;;11.93;;
359;SDS011;168;48.872;9.226;2024-01-30T05:42:46;21.33;;;14.53;;
359;SDS011;168;48.872;9.226;2024-01-30T05:45:14;15.63;;;13.10;;
359;SDS011;168;48.872;9.226;2024-01-30T05:47:41;15.13;;;13.53;;
359;SDS011;168;48.872;9.226;2024-01-30T05:50:10;18.37;;;14.90;;
359;SDS011;168;48.872;9.226;2024-01-30T05:52:38;15.60;;;13.50;;
359;SDS011;168;48.872;9.226;2024-01-30T05:55:05;17.00;;;14.00;;
359;SDS011;168;48.872;9.226;2024-01-30T05:57:33;16.13;;;12.70;;
359;SDS011;168;48.872;9.226;2024-01-30T06:00:00;19.23;;;13.77;;
359;SDS011;168;48.872;9.226;2024-01-30T06:02:29;16.47;;;14.73;;
359;SDS011;168;48.872;9.226;2024-01-30T06:04:56;15.30;;;13.70;;
359;SDS011;168;48.872;9.226;2024-01-30T06:07:26;15.70;;;13.30;;
359;SDS011;168;48.872;9.226;2024-01-30T06:09:53;15.03;;;12.83;;
359;SDS011;168;48.872;9.226;2024-01-30T06:12:21;20.27;;;13.80;;
359;SDS011;168;48.872;9.226;2024-01-30T06:14:48;16.97;;;14.30;;
359;SDS011;168;48.872;9.226;2024-01-30T06:17:15;16.67;;;14.07;;
359;SDS011;168;48.872;9.226;2024-01-30T06:19:43;16.47;;;13.23;;
359;SDS011;168;48.872;9.226;2024-01-30T06:22:10;17.03;;;14.30;;
359;SDS011;168;48.872;9.226;2024-01-30T06:24:39;16.80;;;14.40;;
359;SDS011;168;48.872;9.226;2024-01-30T06:27:06;16.77;;;14.40;;
359;SDS011;168;48.872;9.226;2024-01-30T06:29:35;14.53;;;12.73;;
359;SDS011;168;48.872;9.226;2024-01-30T06:32:02;15.20;;;13.70;;
359;SDS011;168;48.872;9.226;2024-01-30T06:34:30;15.40;;;13.17;;
359;SDS011;168;48.872;9.226;2024-01-30T06:36:57;16.93;;;13.33;;
359;SDS011;168;48.872;9.226;2024-01-30T06:39:25;15.40;;;13.23;;
359;SDS011;168;48.872;9.226;2024-01-30T06:41:54;15.80;;;12.97;;
359;SDS011;168;48.872;9.226;2024-01-30T06:44:22;15.67;;;12.87;;
359;SDS011;168;48.872;9.226;2024-01-30T06:46:49;14.40;;;12.90;;
359;SDS011;168;48.872;9.226;2024-01-30T06:49:17;14.20;;;12.67;;
359;SDS011;168;48.872;9.226;2024-01-30T06:51:44;14.60;;;13.00;;
359;SDS011;168;48.872;9.226;2024-01-30T06:54:12;16.30;;;14.70;;
359;SDS011;168;48.872;9.226;2024-01-30T06:56:39;14.07;;;12.57;;
359;SDS011;168;48.872;9.226;2024-01-30T06:59:08;20.07;;;14.90;;
359;SDS011;168;48.872;9.226;2024-01-30T07:01:36;15.67;;;13.73;;
359;SDS011;168;48.872;9.226;2024-01-30T07:04:03;15.70;;;13.77;;
359;SDS011;168;48.872;9.226;2024-01-30T07:06:32;18.10;;;15.40;;
359;SDS011;168;48.872;9.226;2024-01-30T07:09:00;16.13;;;13.47;;
359;SDS011;168;48.872;9.226;2024-01-30T07:11:27;16.57;;;14.53;;
359;SDS011;168;48.872;9.226;2024-01-30T07:13:54;15.10;;;13.30;;
359;SDS011;168;48.872;9.226;2024-01-30T07:16:23;18.27;;;14.47;;
359;SDS011;168;48.872;9.226;2024-01-30T07:18:51;14.47;;;12.97;;
359;SDS011;168;48.872;9.226;2024-01-30T07:21:18;16.43;;;13.93;;
359;SDS011;168;48.872;9.226;2024-01-30T07:23:47;17.50;;;14.33;;
359;SDS011;168;48.872;9.226;2024-01-30T07:26:15;17.00;;;13.07;;
359;SDS011;168;48.872;9.226;2024-01-30T07:28:42;16.10;;;14.40;;
359;SDS011;168;48.872;9.226;2024-01-30T07:31:10;15.27;;;13.77;;
359;SDS011;168;48.872;9.226;2024-01-30T07:33:42;17.33;;;12.43;;
359;SDS011;168;48.872;9.226;2024-01-30T07:36:09;14.83;;;13.27;;
359;SDS011;168;48.872;9.226;2024-01-30T07:38:37;15.97;;;13.33;;
359;SDS011;168;48.872;9.226;2024-01-30T07:41:04;16.80;;;15.00;;
359;SDS011;168;48.872;9.226;2024-01-30T07:43:34;15.53;;;13.10;;
359;SDS011;168;48.872;9.226;2024-01-30T07:46:04;15.20;;;13.63;;
359;SDS011;168;48.872;9.226;2024-01-30T07:48:33;15.23;;;13.63;;
359;SDS011;168;48.872;9.226;2024-01-30T07:51:02;16.07;;;13.60;;
359;SDS011;168;48.872;9.226;2024-01-30T07:53:29;16.00;;;13.97;;
359;SDS011;168;48.872;9.226;2024-01-30T07:55:57;15.43;;;11.80;;
359;SDS011;168;48.872;9.226;2024-01-30T07:58:24;14.23;;;12.43;;
359;SDS011;168;48.872;9.226;2024-01-30T08:00:52;13.23;;;11.83;;
359;SDS011;168;48.872;9.226;2024-01-30T08:03:22;15.47;;;12.67;;
359;SDS011;168;48.872;9.226;2024-01-30T08:05:49;14.10;;;12.57;;
359;SDS011;168;48.872;9.226;2024-01-30T08:08:18;13.77;;;12.37;;
359;SDS011;168;48.872;9.226;2024-01-30T08:10:46;18.83;;;13.33;;
359;SDS011;168;48.872;9.226;2024-01-30T08:13:13;13.77;;;12.30;;
359;SDS011;168;48.872;9.226;2024-01-30T08:15:41;14.50;;;12.00;;
359;SDS011;168;48.872;9.226;2024-01-30T08:18:08;15.57;;;13.53;;
359;SDS011;168;48.872;9.226;2024-01-30T08:20:36;14.40;;;12.97;;
359;SDS011;168;48.872;9.226;2024-01-30T08:23:03;16.07;;;12.90;;
359;SDS011;168;48.872;9.226;2024-01-30T08:25:32;15.00;;;12.97;;
359;SDS011;168;48.872;9.226;2024-01-30T08:28:00;15.17;;;12.83;;
359;SDS011;168;48.872;9.226;2024-01-30T08:30:27;15.33;;;13.00;;
359;SDS011;168;48.872;9.226;2024-01-30T08:32:57;15.77;;;14.17;;
359;SDS011;168;48.872;9.226;2024-01-30T08:35:24;16.23;;;14.53;;
359;SDS011;168;48.872;9.226;2024-01-30T08:37:52;16.47;;;13.23;;
359;SDS011;168;48.872;9.226;2024-01-30T08:40:20;17.50;;;12.63;;
359;SDS011;168;48.872;9.226;2024-01-30T08:43:23;16.07;;;14.37;;
359;SDS011;168;48.872;9.226;2024-01-30T08:46:00;15.90;;;12.97;;
359;SDS011;168;48.872;9.226;2024-01-30T08:48:29;16.13;;;14.40;;
359;SDS011;168;48.872;9.226;2024-01-30T08:50:56;14.70;;;13.10;;
359;SDS011;168;48.872;9.226;2024-01-30T08:53:23;15.20;;;13.57;;
359;SDS011;168;48.872;9.226;2024-01-30T08:56:32;15.97;;;13.73;;
359;SDS011;168;48.872;9.226;2024-01-30T08:59:01;14.47;;;13.07;;
359;SDS011;168;48.872;9.226;2024-01-30T09:01:28;14.10;;;12.60;;
359;SDS011;168;48.872;9.226;2024-01-30T09:03:56;15.20;;;13.03;;
359;SDS011;168;48.872;9.226;2024-01-30T09:06:23;12.90;;;11.60;;
359;SDS011;168;48.872;9.226;2024-01-30T09:08:53;16.20;;;14.07;;
359;SDS011;168;48.872;9.226;2024-01-30T09:11:23;13.90;;;12.50;;
359;SDS011;168;48.872;9.226;2024-01-30T09:13:50;13.10;;;11.80;;
359;SDS011;168;48.872;9.226;2024-01-30T09:16:19;14.13;;;12.80;;
359;SDS011;168;48.872;9.226;2024-01-30T09:18:47;14.33;;;12.03;;
359;SDS011;168;48.872;9.226;2024-01-30T09:21:15;13.97;;;12.53;;
359;SDS011;168;48.872;9.226;2024-01-30T09:23:42;14.00;;;12.30;;
359;SDS011;168;48.872;9.226;2024-01-30T09:26:10;13.57;;;12.10;;
359;SDS011;168;48.872;9.226;2024-01-30T09:28:38;13.13;;;11.70;;
359;SDS011;168;48.872;9.226;2024-01-30T09:31:09;13.37;;;11.97;;
359;SDS011;168;48.872;9.226;2024-01-30T09:33:38;13.80;;;12.50;;
359;SDS011;168;48.872;9.226;2024-01-30T09:36:07;12.87;;;11.57;;
359;SDS011;168;48.872;9.226;2024-01-30T09:38:35;13.43;;;12.10;;
359;SDS011;168;48.872;9.226;2024-01-30T09:41:03;13.80;;;12.40;;
359;SDS011;168;48.872;9.226;2024-01-30T09:43:35;13.27;;;11.83;;
359;SDS011;168;48.872;9.226;2024-01-30T09:48:39;12.70;;;11.50;;
359;SDS011;168;48.872;9.226;2024-01-30T09:51:08;15.63;;;13.30;;
359;SDS011;168;48.872;9.226;2024-01-30T09:53:36;13.43;;;12.13;;
359;SDS011;168;48.872;9.226;2024-01-30T09:56:04;14.60;;;12.97;;
359;SDS011;168;48.872;9.226;2024-01-30T09:58:32;12.60;;;11.30;;
359;SDS011;168;48.872;9.226;2024-01-30T10:00:59;14.57;;;12.20;;
359;SDS011;168;48.872;9.226;2024-01-30T10:03:26;13.27;;;12.07;;
359;SDS011;168;48.872;9.226;2024-01-30T10:05:55;13.70;;;12.50;;
359;SDS011;168;48.872;9.226;2024-01-30T10:08:23;13.90;;;12.60;;
359;SDS011;168;48.872;9.226;2024-01-30T10:10:50;13.97;;;12.53;;
359;SDS011;168;48.872;9.226;2024-01-30T10:13:18;14.40;;;12.90;;
359;SDS011;168;48.872;9.226;2024-01-30T10:15:45;14.47;;;12.93;;
359;SDS011;168;48.872;9.226;2024-01-30T10:18:13;13.13;;;11.83;;
359;SDS011;168;48.872;9.226;2024-01-30T10:20:41;17.13;;;13.60;;
359;SDS011;168;48.872;9.226;2024-01-30T10:23:10;13.37;;;12.07;;
359;SDS011;168;48.872;9.226;2024-01-30T10:25:38;14.80;;;11.70;;
359;SDS011;168;48.872;9.226;2024-01-30T10:28:05;14.50;;;13.10;;
359;SDS011;168;48.872;9.226;2024-01-30T10:30:33;14.23;;;12.80;;
359;SDS011;168;48.872;9.226;2024-01-30T10:33:00;14.20;;;12.80;;
359;SDS011;168;48.872;9.226;2024-01-30T10:35:28;13.50;;;12.10;;
359;SDS011;168;48.872;9.226;2024-01-30T10:37:56;15.27;;;13.73;;
359;SDS011;168;48.872;9.226;2024-01-30T10:40:27;23.00;;;15.60;;
359;SDS011;168;48.872;9.226;2024-01-30T10:42:55;15.73;;;14.13;;
359;SDS011;168;48.872;9.226;2024-01-30T10:45:22;14.60;;;13.00;;
359;SDS011;168;48.872;9.226;2024-01-30T10:47:54;14.10;;;12.80;;
359;SDS011;168;48.872;9.226;2024-01-30T10:50:23;14.83;;;13.33;;
359;SDS011;168;48.872;9.226;2024-01-30T10:52:52;15.23;;;13.63;;
359;SDS011;168;48.872;9.226;2024-01-30T10:55:20;15.30;;;13.77;;
359;SDS011;168;48.872;9.226;2024-01-30T10:57:50;15.43;;;13.90;;
359;SDS011;168;48.872;9.226;2024-01-30T11:00:18;15.13;;;13.63;;
359;SDS011;168;48.872;9.226;2024-01-30T11:02:49;15.00;;;13.30;;
359;SDS011;168;48.872;9.226;2024-01-30T11:05:23;14.70;;;13.27;;
359;SDS011;168;48.872;9.226;2024-01-30T11:07:52;15.00;;;13.57;;
359;SDS011;168;48.872;9.226;2024-01-30T11:10:19;15.37;;;13.77;;
359;SDS011;168;48.872;9.226;2024-01-30T11:12:46;17.90;;;16.00;;
359;SDS011;168;48.872;9.226;2024-01-30T11:15:17;17.50;;;15.70;;
359;SDS011;168;48.872;9.226;2024-01-30T11:17:45;17.37;;;15.10;;
359;SDS011;168;48.872;9.226;2024-01-30T11:20:19;16.60;;;15.00;;
359;SDS011;168;48.872;9.226;2024-01-30T11:22:47;15.07;;;13.57;;
359;SDS011;168;48.872;9.226;2024-01-30T11:25:17;15.00;;;13.50;;
359;SDS011;168;48.872;9.226;2024-01-30T11:27:46;14.60;;;13.20;;
359;SDS011;168;48.872;9.226;2024-01-30T11:30:26;13.83;;;12.33;;
359;SDS011;168;48.872;9.226;2024-01-30T11:32:58;13.70;;;12.40;;
359;SDS011;168;48.872;9.226;2024-01-30T11:35:32;15.00;;;13.60;;
359;SDS011;168;48.872;9.226;2024-01-30T11:38:00;15.13;;;12.97;;
359;SDS011;168;48.872;9.226;2024-01-30T11:40:29;14.87;;;13.27;;
359;SDS011;168;48.872;9.226;2024-01-30T11:42:58;14.30;;;12.90;;
359;SDS011;168;48.872;9.226;2024-01-30T11:45:27;14.63;;;13.33;;
359;SDS011;168;48.872;9.226;2024-01-30T11:47:55;14.53;;;13.23;;
359;SDS011;168;48.872;9.226;2024-01-30T11:50:22;19.20;;;12.90;;
359;SDS011;168;48.872;9.226;2024-01-30T11:52:51;16.80;;;13.07;;
359;SDS011;168;48.872;9.226;2024-01-30T11:55:18;15.30;;;13.77;;
359;SDS011;168;48.872;9.226;2024-01-30T11:57:46;15.83;;;14.10;;
359;SDS011;168;48.872;9.226;2024-01-30T12:00:14;15.90;;;14.20;;
359;SDS011;168;48.872;9.226;2024-01-30T12:02:44;16.03;;;14.47;;
359;SDS011;168;48.872;9.226;2024-01-30T12:05:15;18.10;;;12.93;;
359;SDS011;168;48.872;9.226;2024-01-30T12:07:43;15.00;;;13.40;;
359;SDS011;168;48.872;9.226;2024-01-30T12:10:12;15.10;;;13.60;;
359;SDS011;168;48.872;9.226;2024-01-30T12:12:40;15.60;;;14.00;;
359;SDS011;168;48.872;9.226;2024-01-30T12:15:10;15.60;;;14.00;;
359;SDS011;168;48.872;9.226;2024-01-30T12:17:37;15.63;;;13.30;;
359;SDS011;168;48.872;9.226;2024-01-30T12:20:06;17.70;;;13.87;;
359;SDS011;168;48.872;9.226;2024-01-30T12:22:38;14.33;;;12.90;;
359;SDS011;168;48.872;9.226;2024-01-30T12:25:07;16.17;;;13.30;;
359;SDS011;168;48.872;9.226;2024-01-30T12:27:35;15.20;;;13.80;;
359;SDS011;168;48.872;9.226;2024-01-30T12:30:05;14.77;;;13.27;;
359;SDS011;168;48.872;9.226;2024-01-30T12:32:34;15.47;;;13.03;;
359;SDS011;168;48.872;9.226;2024-01-30T12:35:01;15.17;;;13.60;;
359;SDS011;168;48.872;9.226;2024-01-30T12:37:30;16.03;;;14.37;;
359;SDS011;168;48.872;9.226;2024-01-30T12:39:58;15.43;;;13.80;;
359;SDS011;168;48.872;9.226;2024-01-30T12:42:26;18.37;;;15.90;;
359;SDS011;168;48.872;9.226;2024-01-30T12:44:54;17.73;;;15.10;;
359;SDS011;168;48.872;9.226;2024-01-30T12:47:23;17.37;;;15.53;;
359;SDS011;168;48.872;9.226;2024-01-30T12:49:51;15.43;;;13.97;;
359;SDS011;168;48.872;9.226;2024-01-30T12:52:19;16.70;;;15.00;;
359;SDS011;168;48.872;9.226;2024-01-30T12:54:48;15.27;;;13.67;;
359;SDS011;168;48.872;9.226;2024-01-30T12:57:16;15.50;;;13.97;;
359;SDS011;168;48.872;9.226;2024-01-30T12:59:44;16.20;;;14.50;;
359;SDS011;168;48.872;9.226;2024-01-30T13:02:12;16.20;;;14.63;;
359;SDS011;168;48.872;9.226;2024-01-30T13:04:40;15.47;;;13.90;;
359;SDS011;168;48.872;9.226;2024-01-30T13:07:08;17.63;;;13.90;;
359;SDS011;168;48.872;9.226;2024-01-30T13:09:35;15.73;;;14.13;;
359;SDS011;168;48.872;9.226;2024-01-30T13:12:05;15.37;;;13.83;;
359;SDS011;168;48.872;9.226;2024-01-30T13:14:32;14.63;;;13.23;;
359;SDS011;168;48.872;9.226;2024-01-30T13:16:59;15.60;;;14.20;;
359;SDS011;168;48.872;9.226;2024-01-30T13:19:27;16.23;;;13.40;;
359;SDS011;168;48.872;9.226;2024-01-30T13:21:54;14.33;;;12.97;;
359;SDS011;168;48.872;9.226;2024-01-30T13:24:21;15.17;;;13.57;;
359;SDS011;168;48.872;9.226;2024-01-30T13:26:49;15.00;;;12.97;;
359;SDS011;168;48.872;9.226;2024-01-30T13:29:18;14.13;;;12.27;;
359;SDS011;168;48.872;9.226;2024-01-30T13:31:45;13.93;;;12.43;;
359;SDS011;168;48.872;9.226;2024-01-30T13:34:12;17.57;;;12.87;;
359;SDS011;168;48.872;9.226;2024-01-30T13:36:40;14.70;;;13.20;;
359;SDS011;168;48.872;9.226;2024-01-30T13:39:08;14.73;;;13.23;;
359;SDS011;168;48.872;9.226;2024-01-30T13:41:38;14.17;;;12.67;;
359;SDS011;168;48.872;9.226;2024-01-30T13:44:05;13.70;;;12.20;;
359;SDS011;168;48.872;9.226;2024-01-30T13:46:34;13.23;;;11.70;;
359;SDS011;168;48.872;9.226;2024-01-30T13:49:01;14.07;;;12.67;;
359;SDS011;168;48.872;9.226;2024-01-30T13:51:29;13.73;;;12.23;;
359;SDS011;168;48.872;9.226;2024-01-30T13:53:56;13.53;;;12.10;;
359;SDS011;168;48.872;9.226;2024-01-30T13:56:24;14.33;;;12.90;;
359;SDS011;168;48.872;9.226;2024-01-30T13:58:52;16.50;;;13.50;;
359;SDS011;168;48.872;9.226;2024-01-30T14:01:21;13.93;;;12.63;;
359;SDS011;168;48.872;9.226;2024-01-30T14:03:50;13.10;;;11.80;;
359;SDS011;168;48.872;9.226;2024-01-30T14:06:17;14.23;;;12.77;;
359;SDS011;168;48.872;9.226;2024-01-30T14:08:45;13.77;;;12.13;;
359;SDS011;168;48.872;9.226;2024-01-30T14:11:12;13.97;;;12.70;;
359;SDS011;168;48.872;9.226;2024-01-30T14:13:40;13.60;;;12.27;;
359;SDS011;168;48.872;9.226;2024-01-30T14:16:07;13.23;;;11.83;;
359;SDS011;168;48.872;9.226;2024-01-30T14:18:35;12.23;;;11.13;;
359;SDS011;168;48.872;9.226;2024-01-30T14:21:03;12.57;;;11.37;;
359;SDS011;168;48.872;9.226;2024-01-30T14:23:32;14.43;;;11.47;;
359;SDS011;168;48.872;9.226;2024-01-30T14:26:00;12.13;;;10.83;;
359;SDS011;168;48.872;9.226;2024-01-30T14:28:27;13.50;;;11.50;;
359;SDS011;168;48.872;9.226;2024-01-30T14:30:54;11.53;;;10.40;;
359;SDS011;168;48.872;9.226;2024-01-30T14:33:22;11.73;;;10.63;;
359;SDS011;168;48.872;9.226;2024-01-30T14:35:49;11.37;;;10.17;;
359;SDS011;168;48.872;9.226;2024-01-30T14:38:18;12.43;;;11.10;;
359;SDS011;168;48.872;9.226;2024-01-30T14:40:46;12.10;;;11.00;;
359;SDS011;168;48.872;9.226;2024-01-30T14:43:13;11.33;;;10.20;;
359;SDS011;168;48.872;9.226;2024-01-30T14:45:40;11.03;;;10.00;;
359;SDS011;168;48.872;9.226;2024-01-30T14:48:08;11.60;;;10.50;;
359;SDS011;168;48.872;9.226;2024-01-30T14:50:35;12.27;;;10.37;;
359;SDS011;168;48.872;9.226;2024-01-30T14:53:03;11.23;;;10.03;;
359;SDS011;168;48.872;9.226;2024-01-30T14:55:32;13.47;;;10.43;;
359;SDS011;168;48.872;9.226;2024-01-30T14:57:59;11.47;;;9.87;;
359;SDS011;168;48.872;9.226;2024-01-30T15:00:27;12.10;;;10.07;;
359;SDS011;168;48.872;9.226;2024-01-30T15:02:55;14.13;;;11.17;;
359;SDS011;168;48.872;9.226;2024-01-30T15:05:22;11.67;;;10.47;;
359;SDS011;168;48.872;9.226;2024-01-30T15:07:49;13.83;;;11.70;;
359;SDS011;168;48.872;9.226;2024-01-30T15:10:17;13.07;;;11.60;;
359;SDS011;168;48.872;9.226;2024-01-30T15:12:45;12.77;;;11.47;;
359;SDS011;168;48.872;9.226;2024-01-30T15:15:13;13.50;;;11.80;;
359;SDS011;168;48.872;9.226;2024-01-30T15:17:40;13.60;;;11.40;;
359;SDS011;168;48.872;9.226;2024-01-30T15:20:08;13.67;;;11.13;;
359;SDS011;168;48.872;9.226;2024-01-30T15:22:35;13.37;;;12.07;;